Terminal Aerodrome Forecast
Issued by NWS

Home | Current Version | Previous Version | Text Only | Print | Product List | Glossary On
Versions: 1 2 3 4 5 6 7 8 9 10 11 12 13 14 15 16 17 18
000
FTUS46 KMTR 201700 CCA
TAFSNS
TAF COR
KSNS 201748Z 2018/2118 11007KT P6SM VCSH BKN020 OVC030
     FM202100 27005KT P6SM SCT015 BKN030 OVC100
     FM210400 VRB03KT P6SM VCSH BKN025 OVC035
     FM211200 14005KT P6SM OVC015=

USA.gov is the U.S. government's official web portal to all federal, state and local government web resources and services.